Time;durP1;ratioP1;P1;durP2;ratioP2;P2;SDS_P1;SDS_P2;PMS_P1;PMS_P2;Temp;Humidity;BMP_temperature;BMP_pressure;BME280_temperature;BME280_humidity;BME280_pressure;Samples;Min_cycle;Max_cycle;Signal;HPM_P1;HPM_P2
2023/03/07 00:03:53;;;;;;;11.35;4.75;;;2.20;99.90;;;;;;8230935;28;20019;-77
2023/03/07 00:07:54;;;;;;;8.13;4.03;;;2.30;99.90;;;;;;8232015;28;20034;-76
2023/03/07 00:11:55;;;;;;;9.38;4.15;;;2.30;99.90;;;;;;8231355;28;20492;-78
2023/03/07 00:16:03;;;;;;;9.13;4.47;;;2.30;99.90;;;;;;8231001;28;20027;-77
2023/03/07 00:20:10;;;;;;;11.40;4.65;;;2.10;99.90;;;;;;8230161;28;20019;-77
2023/03/07 00:24:10;;;;;;;8.30;4.72;;;2.20;99.90;;;;;;8224161;28;20046;-78
2023/03/07 00:28:11;;;;;;;8.15;4.13;;;2.10;99.90;;;;;;8231300;28;20041;-77
2023/03/07 00:32:11;;;;;;;9.57;4.40;;;2.10;99.90;;;;;;8230026;28;20062;-77
2023/03/07 00:36:14;;;;;;;9.02;4.30;;;2.10;99.90;;;;;;8230547;28;20026;-76
2023/03/07 00:40:15;;;;;;;9.98;4.68;;;2.20;99.90;;;;;;8231381;28;20046;-77
2023/03/07 00:44:16;;;;;;;9.93;4.57;;;2.10;99.90;;;;;;8230681;28;20023;-76
2023/03/07 00:48:17;;;;;;;11.93;4.70;;;2.10;99.90;;;;;;8222039;28;20022;-76
2023/03/07 00:52:17;;;;;;;9.75;4.30;;;2.10;99.90;;;;;;8222309;28;20015;-77
2023/03/07 00:56:23;;;;;;;10.13;4.10;;;2.10;99.90;;;;;;8229494;28;20447;-77
2023/03/07 01:00:24;;;;;;;8.65;4.30;;;2.20;99.90;;;;;;8211316;28;20045;-76
2023/03/07 01:04:24;;;;;;;9.55;4.97;;;2.20;99.90;;;;;;8212058;28;20153;-77
2023/03/07 01:08:25;;;;;;;10.38;4.68;;;2.30;99.90;;;;;;8222973;28;20027;-77
2023/03/07 01:12:25;;;;;;;8.77;4.35;;;2.10;99.90;;;;;;8228279;28;20023;-77
2023/03/07 01:16:29;;;;;;;7.75;4.45;;;2.10;99.90;;;;;;8227391;28;20026;-77
2023/03/07 01:20:31;;;;;;;10.65;4.57;;;2.20;99.90;;;;;;8229228;28;20031;-76
2023/03/07 01:24:32;;;;;;;9.30;5.07;;;2.20;99.90;;;;;;8227314;28;20026;-77
2023/03/07 01:28:32;;;;;;;8.20;4.53;;;2.30;99.90;;;;;;8228209;28;20025;-76
2023/03/07 01:32:33;;;;;;;8.05;4.47;;;2.20;99.90;;;;;;8227903;28;20034;-76
2023/03/07 01:36:34;;;;;;;8.30;4.00;;;2.20;99.90;;;;;;8227418;28;20038;-77
2023/03/07 01:40:37;;;;;;;8.25;4.10;;;2.30;99.90;;;;;;8227467;28;20026;-77
2023/03/07 01:44:57;;;;;;;11.75;4.30;;;2.20;99.90;;;;;;8221515;28;20101;-76
2023/03/07 01:49:32;;;;;;;8.40;4.03;;;2.20;99.90;;;;;;8225069;28;20049;-76
2023/03/07 01:53:33;;;;;;;9.73;3.85;;;2.30;99.90;;;;;;8225724;28;20060;-78
2023/03/07 01:57:38;;;;;;;10.75;5.13;;;2.30;99.90;;;;;;8221599;28;20019;-77
2023/03/07 02:01:39;;;;;;;9.98;4.35;;;2.30;99.90;;;;;;8212434;28;20117;-77
2023/03/07 02:05:46;;;;;;;11.98;4.97;;;2.30;99.90;;;;;;8226452;28;20015;-76
2023/03/07 02:09:48;;;;;;;9.07;4.68;;;2.20;99.90;;;;;;8227480;28;20054;-77
2023/03/07 02:13:49;;;;;;;9.00;4.80;;;2.40;99.90;;;;;;8227746;28;20101;-76
2023/03/07 02:17:50;;;;;;;9.20;4.80;;;2.40;99.90;;;;;;8226240;28;20022;-76
2023/03/07 02:22:07;;;;;;;9.98;4.80;;;2.50;99.90;;;;;;8227268;28;20530;-76
2023/03/07 02:26:30;;;;;;;6.90;3.78;;;2.40;99.90;;;;;;8226056;28;20019;-76
2023/03/07 02:30:30;;;;;;;10.88;4.25;;;2.40;99.90;;;;;;8225756;28;20018;-77
2023/03/07 02:34:31;;;;;;;9.82;3.90;;;2.40;99.90;;;;;;8227298;28;20041;-76
2023/03/07 02:38:36;;;;;;;10.23;4.25;;;2.30;99.90;;;;;;8227332;28;20134;-77
2023/03/07 02:42:41;;;;;;;10.20;4.75;;;2.40;99.90;;;;;;8226037;28;20030;-76
2023/03/07 02:46:41;;;;;;;9.00;3.65;;;2.40;99.90;;;;;;8218201;28;20019;-77
2023/03/07 02:50:42;;;;;;;7.70;3.20;;;2.40;99.90;;;;;;8224880;28;20030;-75
2023/03/07 02:54:42;;;;;;;9.07;4.35;;;2.40;99.90;;;;;;8220946;28;20629;-77
2023/03/07 02:58:43;;;;;;;10.07;4.25;;;2.30;99.90;;;;;;8219323;28;20085;-76
2023/03/07 03:02:43;;;;;;;10.23;3.65;;;2.10;99.90;;;;;;8217720;28;20511;-77
2023/03/07 03:06:44;;;;;;;10.95;4.78;;;2.10;99.90;;;;;;8225339;28;20015;-78
2023/03/07 03:10:44;;;;;;;11.07;4.55;;;1.90;99.90;;;;;;8227111;28;20019;-77
2023/03/07 03:14:45;;;;;;;9.98;4.82;;;1.80;99.90;;;;;;8224064;28;20019;-77
2023/03/07 03:18:46;;;;;;;11.13;4.20;;;1.80;99.90;;;;;;8219911;28;20566;-76
2023/03/07 03:22:46;;;;;;;6.70;4.03;;;1.70;99.90;;;;;;8218744;28;20034;-76
2023/03/07 03:26:47;;;;;;;10.60;5.10;;;1.60;99.90;;;;;;8225727;28;21362;-77
2023/03/07 03:31:00;;;;;;;8.57;4.30;;;1.50;99.90;;;;;;8225204;28;20054;-76
2023/03/07 03:35:00;;;;;;;10.68;4.95;;;1.60;99.90;;;;;;8226243;28;20058;-77
2023/03/07 03:39:01;;;;;;;10.55;4.32;;;1.60;99.90;;;;;;8230907;28;20038;-77
2023/03/07 03:43:01;;;;;;;8.10;4.13;;;1.50;99.90;;;;;;8230673;28;20053;-77
2023/03/07 03:47:03;;;;;;;12.25;3.78;;;1.40;99.90;;;;;;8222874;28;20027;-77
2023/03/07 03:51:09;;;;;;;11.65;4.70;;;1.40;99.90;;;;;;8215108;28;20078;-76
2023/03/07 03:55:10;;;;;;;8.32;4.20;;;1.30;99.90;;;;;;8230423;28;20033;-76
2023/03/07 03:59:10;;;;;;;10.20;3.58;;;1.20;99.90;;;;;;8230319;28;20491;-77
2023/03/07 04:03:11;;;;;;;9.15;4.13;;;1.20;99.90;;;;;;8229561;28;20023;-76
2023/03/07 04:07:11;;;;;;;8.15;4.38;;;1.10;99.90;;;;;;8230231;28;20069;-77
2023/03/07 04:11:12;;;;;;;13.32;3.80;;;1.00;99.90;;;;;;8231541;28;20495;-77
2023/03/07 04:15:13;;;;;;;10.05;4.40;;;0.90;99.90;;;;;;8224402;28;20030;-76
2023/03/07 04:19:13;;;;;;;11.00;4.65;;;0.80;99.90;;;;;;8230026;28;20023;-76
2023/03/07 04:23:15;;;;;;;9.93;3.67;;;0.50;99.90;;;;;;8211854;28;20182;-77
2023/03/07 04:27:16;;;;;;;8.20;3.17;;;0.60;99.90;;;;;;8195388;28;20023;-76
2023/03/07 04:31:22;;;;;;;10.45;4.32;;;0.40;99.90;;;;;;8199432;28;20031;-77
2023/03/07 04:35:23;;;;;;;9.98;3.97;;;0.50;99.90;;;;;;8187392;28;20031;-76
2023/03/07 04:39:24;;;;;;;6.18;3.13;;;0.40;99.90;;;;;;8223371;28;20399;-77
2023/03/07 04:43:24;;;;;;;8.40;3.60;;;0.40;99.90;;;;;;8229051;28;20026;-77
2023/03/07 04:47:25;;;;;;;8.18;4.07;;;0.30;99.90;;;;;;8227312;28;20022;-77
2023/03/07 04:51:25;;;;;;;9.88;4.38;;;0.00;99.90;;;;;;8228149;28;20030;-77
2023/03/07 04:55:26;;;;;;;8.20;3.78;;;0.00;99.90;;;;;;8228656;28;20608;-76
2023/03/07 04:59:26;;;;;;;7.65;3.38;;;0.00;99.90;;;;;;8227496;28;20029;-77
2023/03/07 05:03:27;;;;;;;10.35;3.83;;;0.10;99.90;;;;;;8199617;28;20034;-76
2023/03/07 05:07:31;;;;;;;6.60;3.03;;;0.40;99.90;;;;;;8211037;28;20057;-76
2023/03/07 05:11:32;;;;;;;8.77;3.50;;;0.80;99.90;;;;;;8213677;28;20038;-77
2023/03/07 05:15:33;;;;;;;8.95;4.20;;;0.80;99.90;;;;;;8226783;28;20059;-77
2023/03/07 05:19:34;;;;;;;8.55;3.85;;;0.90;99.90;;;;;;8217024;28;20062;-77
2023/03/07 05:23:34;;;;;;;9.60;4.22;;;1.00;99.90;;;;;;8206516;28;20521;-76
2023/03/07 05:27:35;;;;;;;8.18;4.25;;;0.80;99.90;;;;;;8210255;28;20019;-77
2023/03/07 05:31:35;;;;;;;7.57;3.78;;;0.70;99.90;;;;;;8227619;28;20057;-77
2023/03/07 05:35:37;;;;;;;9.98;4.00;;;0.70;99.90;;;;;;8210467;28;20046;-78
2023/03/07 05:39:38;;;;;;;10.45;4.28;;;0.70;99.90;;;;;;8222062;28;20419;-77
2023/03/07 05:43:38;;;;;;;8.85;4.18;;;1.00;99.90;;;;;;8204055;28;20029;-76
2023/03/07 05:47:39;;;;;;;10.63;3.63;;;1.10;99.90;;;;;;8212909;28;20022;-77
2023/03/07 05:51:39;;;;;;;7.95;3.63;;;1.00;99.90;;;;;;8226383;28;20026;-77
2023/03/07 05:55:40;;;;;;;11.27;3.53;;;1.30;99.90;;;;;;8227458;28;20019;-78
2023/03/07 05:59:40;;;;;;;8.93;4.45;;;1.30;99.90;;;;;;8226146;28;20030;-77
2023/03/07 06:03:42;;;;;;;12.32;4.45;;;1.30;99.90;;;;;;8226070;28;20102;-77
2023/03/07 06:07:43;;;;;;;9.93;3.80;;;1.40;99.90;;;;;;8226546;28;20019;-77
2023/03/07 06:11:44;;;;;;;7.97;3.90;;;1.30;99.90;;;;;;8226458;28;20038;-77
2023/03/07 06:15:46;;;;;;;13.38;3.92;;;1.30;99.90;;;;;;8227734;28;20484;-77
2023/03/07 06:19:47;;;;;;;8.70;4.13;;;1.50;99.90;;;;;;8226500;28;20026;-77
2023/03/07 06:23:47;;;;;;;11.18;4.43;;;1.60;99.90;;;;;;8225340;28;20045;-76
2023/03/07 06:27:48;;;;;;;7.07;3.70;;;1.60;99.90;;;;;;8225794;28;20031;-78
2023/03/07 06:31:49;;;;;;;11.50;4.22;;;1.50;99.90;;;;;;8226954;28;20034;-77
2023/03/07 06:35:50;;;;;;;7.00;3.53;;;1.60;99.90;;;;;;8226287;28;20027;-78
2023/03/07 06:39:52;;;;;;;10.32;4.03;;;1.50;99.90;;;;;;8226399;28;20479;-77
2023/03/07 06:43:53;;;;;;;8.00;4.05;;;1.40;99.90;;;;;;8226611;28;20027;-77
2023/03/07 06:47:54;;;;;;;6.57;3.47;;;1.40;99.90;;;;;;8222968;28;20023;-78
2023/03/07 06:51:54;;;;;;;9.80;4.18;;;1.50;99.90;;;;;;8220971;28;20030;-78
2023/03/07 06:55:55;;;;;;;9.13;3.60;;;1.50;99.90;;;;;;8225799;28;20015;-77
2023/03/07 06:59:55;;;;;;;8.18;3.58;;;1.50;99.90;;;;;;8225602;28;20431;-77
2023/03/07 07:03:56;;;;;;;10.23;4.40;;;1.30;99.90;;;;;;8225592;28;20027;-79
2023/03/07 07:07:57;;;;;;;8.77;3.35;;;1.40;99.90;;;;;;8225890;28;20026;-77
2023/03/07 07:11:57;;;;;;;9.43;4.72;;;1.40;99.90;;;;;;8229715;28;20030;-77
2023/03/07 07:16:04;;;;;;;9.38;4.88;;;1.40;99.90;;;;;;8231768;28;20023;-77
2023/03/07 07:20:06;;;;;;;9.38;4.53;;;1.60;99.90;;;;;;8232017;28;20061;-77
2023/03/07 07:24:10;;;;;;;11.45;3.78;;;1.60;99.90;;;;;;8231151;28;20388;-78
2023/03/07 07:28:11;;;;;;;11.82;4.82;;;1.70;99.90;;;;;;8230855;28;20015;-77
2023/03/07 07:32:11;;;;;;;11.82;4.75;;;1.90;99.90;;;;;;8231526;28;20490;-78
2023/03/07 07:36:12;;;;;;;10.13;4.28;;;1.90;99.90;;;;;;8232615;28;20578;-77
2023/03/07 07:40:13;;;;;;;10.73;4.75;;;2.10;99.90;;;;;;8231291;28;20023;-77
2023/03/07 07:44:14;;;;;;;9.68;4.30;;;2.20;99.90;;;;;;8231785;28;20023;-78
2023/03/07 07:48:15;;;;;;;9.48;4.32;;;2.30;99.90;;;;;;8230426;28;20510;-78
2023/03/07 07:52:15;;;;;;;9.68;4.57;;;2.50;99.90;;;;;;8230432;28;20062;-77
2023/03/07 07:56:16;;;;;;;10.02;4.78;;;2.60;99.90;;;;;;8230632;28;20174;-78
2023/03/07 08:00:20;;;;;;;10.77;5.22;;;2.70;99.90;;;;;;8230128;28;20022;-77
2023/03/07 08:04:20;;;;;;;12.90;4.35;;;2.80;99.90;;;;;;8228446;28;20031;-77
2023/03/07 08:08:21;;;;;;;13.07;4.55;;;3.00;99.90;;;;;;8230147;28;20073;-78
2023/03/07 08:12:21;;;;;;;11.00;4.35;;;3.20;99.90;;;;;;8229997;28;20022;-78
2023/03/07 08:16:23;;;;;;;10.43;3.95;;;3.60;99.90;;;;;;8229702;28;20113;-77
2023/03/07 08:20:24;;;;;;;10.25;4.70;;;4.20;99.90;;;;;;8229851;28;20106;-77
2023/03/07 08:24:25;;;;;;;8.07;3.03;;;4.90;99.90;;;;;;8230465;28;20400;-78
2023/03/07 08:28:25;;;;;;;9.35;3.53;;;5.20;99.90;;;;;;8230168;28;20026;-77
2023/03/07 08:32:26;;;;;;;9.40;4.28;;;5.20;99.90;;;;;;8229769;28;20026;-77
2023/03/07 08:36:27;;;;;;;7.47;3.17;;;5.10;99.90;;;;;;8230620;28;20031;-77
2023/03/07 08:40:29;;;;;;;7.75;3.90;;;5.10;99.90;;;;;;8229740;28;20027;-78
2023/03/07 08:44:29;;;;;;;10.50;3.85;;;5.10;99.90;;;;;;8227492;28;20030;-78
2023/03/07 08:48:30;;;;;;;9.25;4.20;;;5.20;99.90;;;;;;8228450;28;20015;-78
2023/03/07 08:52:30;;;;;;;9.10;4.50;;;5.30;99.90;;;;;;8228686;28;20033;-77
2023/03/07 08:56:31;;;;;;;8.45;4.10;;;5.20;99.90;;;;;;8229209;28;20038;-77
2023/03/07 09:00:31;;;;;;;7.35;4.03;;;5.30;99.90;;;;;;8227909;28;20031;-78
2023/03/07 09:04:32;;;;;;;8.30;3.90;;;5.40;99.90;;;;;;8228494;28;20094;-77
2023/03/07 09:08:33;;;;;;;10.55;4.10;;;5.70;99.90;;;;;;8228727;28;20038;-77
2023/03/07 09:12:34;;;;;;;9.10;3.75;;;5.90;99.90;;;;;;8227592;28;20491;-78
2023/03/07 09:16:35;;;;;;;21.05;10.13;;;5.70;99.90;;;;;;8227886;28;20018;-77
2023/03/07 09:20:39;;;;;;;10.45;5.60;;;5.40;99.90;;;;;;8229609;28;20027;-77
2023/03/07 09:24:40;;;;;;;5.38;2.53;;;5.30;99.90;;;;;;8228480;28;20035;-78
2023/03/07 09:28:41;;;;;;;10.82;5.63;;;5.40;99.90;;;;;;8228885;28;20205;-78
2023/03/07 09:32:41;;;;;;;6.72;3.55;;;5.40;99.90;;;;;;8228040;28;20030;-77
2023/03/07 09:36:42;;;;;;;10.77;4.07;;;5.50;99.90;;;;;;8227248;28;20117;-78
2023/03/07 09:40:45;;;;;;;7.35;3.55;;;5.60;99.90;;;;;;8227804;28;20023;-77
2023/03/07 09:45:22;;;;;;;9.18;4.30;;;5.80;99.90;;;;;;8228179;28;20046;-77
2023/03/07 09:49:37;;;;;;;9.60;3.60;;;6.00;99.90;;;;;;8227646;28;20030;-77
2023/03/07 09:53:48;;;;;;;7.50;4.03;;;5.80;99.90;;;;;;8226564;28;20081;-78
2023/03/07 09:57:57;;;;;;;8.10;3.72;;;5.40;99.90;;;;;;8216809;28;20034;-77
2023/03/07 10:02:03;;;;;;;7.22;3.50;;;5.90;99.90;;;;;;8225572;28;20018;-77
2023/03/07 10:06:37;;;;;;;10.43;4.82;;;6.10;99.90;;;;;;8228197;28;20563;-78
2023/03/07 10:10:43;;;;;;;6.82;3.15;;;6.30;99.90;;;;;;8207266;28;20041;-78
2023/03/07 10:14:53;;;;;;;9.63;4.53;;;6.20;99.90;;;;;;8216006;28;20031;-78
2023/03/07 10:18:56;;;;;;;;;;;6.30;99.90;;;;;;8228642;28;20093;-78
2023/03/07 10:23:27;;;;;;;8.15;4.20;;;6.50;99.90;;;;;;8226847;28;20037;-78
2023/03/07 10:27:29;;;;;;;;;;;6.50;99.90;;;;;;8226039;28;20026;-79
2023/03/07 10:31:37;;;;;;;7.03;3.33;;;6.80;99.90;;;;;;8226956;28;20397;-78
2023/03/07 10:35:43;;;;;;;12.10;2.75;;;7.00;99.90;;;;;;8207799;28;20070;-79
2023/03/07 10:39:51;;;;;;;6.72;3.17;;;7.10;99.90;;;;;;8227516;28;20027;-77
2023/03/07 10:43:53;;;;;;;8.63;3.45;;;7.00;99.90;;;;;;8226037;28;20023;-78
2023/03/07 10:47:54;;;;;;;8.65;4.15;;;7.20;99.90;;;;;;8232300;28;20484;-78
2023/03/07 10:52:34;;;;;;;10.85;4.20;;;7.10;99.90;;;;;;8231046;28;20062;-78
2023/03/07 10:56:35;;;;;;;10.55;4.40;;;7.40;99.90;;;;;;8230116;28;20029;-78
2023/03/07 11:00:35;;;;;;;7.95;3.75;;;7.80;99.90;;;;;;8232004;28;20106;-79
2023/03/07 11:04:45;;;;;;;9.43;4.60;;;8.40;99.90;;;;;;8232050;28;20547;-79
2023/03/07 11:08:45;;;;;;;9.10;4.40;;;9.60;99.90;;;;;;8221856;28;20098;-78
2023/03/07 11:12:46;;;;;;;9.27;4.32;;;10.10;99.90;;;;;;8232532;28;20262;-79
2023/03/07 11:16:54;;;;;;;10.38;4.57;;;9.80;99.90;;;;;;8231631;28;20376;-79
2023/03/07 11:20:55;;;;;;;7.22;4.22;;;10.20;99.90;;;;;;8232124;28;20022;-77
2023/03/07 11:25:26;;;;;;;10.07;4.05;;;9.60;99.90;;;;;;8231122;28;20712;-77
2023/03/07 11:29:27;;;;;;;9.13;3.85;;;10.50;99.90;;;;;;8231121;28;20019;-78
2023/03/07 11:33:47;;;;;;;9.55;5.10;;;10.90;99.90;;;;;;8232727;28;20045;-78
2023/03/07 11:38:01;;;;;;;9.60;4.27;;;10.00;99.90;;;;;;8221534;28;20070;-78
2023/03/07 11:42:22;;;;;;;6.40;3.70;;;11.40;99.90;;;;;;8232777;28;20033;-78
2023/03/07 11:46:47;;;;;;;10.90;4.57;;;11.70;97.10;;;;;;8230573;28;20118;-77
2023/03/07 11:50:56;;;;;;;10.02;5.00;;;11.20;98.10;;;;;;8221645;28;20031;-78
2023/03/07 11:54:56;;;;;;;6.20;3.85;;;11.50;96.10;;;;;;8231853;28;20026;-78
2023/03/07 11:59:33;;;;;;;8.05;3.60;;;12.10;94.00;;;;;;8229610;28;20027;-78
2023/03/07 12:03:54;;;;;;;6.57;3.25;;;11.00;94.90;;;;;;8216847;28;20026;-77
2023/03/07 12:08:17;;;;;;;6.78;4.03;;;10.70;95.80;;;;;;8230816;28;20031;-79
2023/03/07 12:12:38;;;;;;;11.50;4.90;;;11.40;95.60;;;;;;8227680;28;20038;-78
2023/03/07 12:16:39;;;;;;;8.55;4.80;;;11.80;94.00;;;;;;8229127;28;20023;-78
2023/03/07 12:21:13;;;;;;;7.10;4.53;;;12.40;93.30;;;;;;8230090;28;20018;-78
2023/03/07 12:25:37;;;;;;;9.55;4.70;;;13.00;92.70;;;;;;8226522;28;20147;-77
2023/03/07 12:29:46;;;;;;;11.80;4.30;;;14.20;90.40;;;;;;8210438;28;20023;-78
2023/03/07 12:34:04;;;;;;;11.00;5.25;;;13.60;90.00;;;;;;8230628;28;20037;-78
2023/03/07 12:38:30;;;;;;;9.27;4.45;;;13.60;88.30;;;;;;8230471;28;20511;-78
2023/03/07 12:42:40;;;;;;;11.73;4.45;;;12.80;86.80;;;;;;8205913;28;20046;-77
2023/03/07 12:46:53;;;;;;;;;;;12.90;89.50;;;;;;8214473;28;20030;-78
2023/03/07 12:51:24;;;;;;;4.82;3.05;;;13.20;86.30;;;;;;8228024;28;19996;-78
2023/03/07 12:55:43;;;;;;;8.32;4.53;;;12.50;90.20;;;;;;8229960;28;20109;-78
2023/03/07 12:59:44;;;;;;;9.27;4.43;;;12.60;86.60;;;;;;8228143;28;20034;-78
2023/03/07 13:04:05;;;;;;;9.90;5.13;;;12.30;87.90;;;;;;8228284;28;20496;-77
2023/03/07 13:08:07;;;;;;;7.28;3.80;;;12.60;88.40;;;;;;8228883;28;20027;-77
2023/03/07 13:12:22;;;;;;;8.95;4.88;;;13.60;84.20;;;;;;8208383;28;20429;-77
2023/03/07 13:16:46;;;;;;;7.05;4.18;;;13.30;87.00;;;;;;8227138;28;20396;-78
2023/03/07 13:21:06;;;;;;;8.50;5.22;;;13.50;82.60;;;;;;8216420;28;20031;-77
2023/03/07 13:25:22;;;;;;;;;;;14.10;79.30;;;;;;8211893;28;20415;-78
2023/03/07 13:30:00;;;;;;;10.23;4.80;;;13.00;82.60;;;;;;8228505;28;19917;-77
2023/03/07 13:34:50;;;;;;;10.32;4.72;;;11.30;85.20;;;;;;8221189;28;20106;-77
2023/03/07 13:38:50;;;;;;;8.07;4.32;;;11.30;88.70;;;;;;8229212;28;20042;-78
2023/03/07 13:42:51;;;;;;;12.43;4.45;;;11.80;85.10;;;;;;8227273;28;20030;-77
2023/03/07 13:46:54;;;;;;;8.93;4.72;;;12.50;88.40;;;;;;8226756;28;20464;-79
2023/03/07 13:50:58;;;;;;;10.60;4.55;;;12.30;84.30;;;;;;8226191;28;20163;-80
2023/03/07 13:55:00;;;;;;;11.15;5.35;;;11.50;85.20;;;;;;8227000;28;20023;-77
2023/03/07 13:59:07;;;;;;;10.10;4.80;;;11.50;89.30;;;;;;8222328;28;20044;-78
2023/03/07 14:03:22;;;;;;;9.73;4.35;;;12.60;83.80;;;;;;8225435;28;20403;-80
2023/03/07 14:07:33;;;;;;;9.50;4.68;;;12.70;85.60;;;;;;8225322;28;20035;-78
2023/03/07 14:12:08;;;;;;;9.77;5.00;;;12.00;89.20;;;;;;8225651;28;20023;-78
2023/03/07 14:16:46;;;;;;;11.57;5.22;;;11.50;86.80;;;;;;8221631;28;20019;-78
2023/03/07 14:21:05;;;;;;;8.20;4.85;;;12.30;88.70;;;;;;8217393;28;20049;-78
2023/03/07 14:25:24;;;;;;;11.77;4.68;;;12.60;87.30;;;;;;8204644;28;20163;-78
2023/03/07 14:29:28;;;;;;;10.77;5.25;;;11.50;87.50;;;;;;8200974;28;20023;-78
2023/03/07 14:33:34;;;;;;;11.35;5.18;;;11.10;88.90;;;;;;8195337;28;20033;-79
2023/03/07 14:37:35;;;;;;;8.80;4.95;;;10.50;90.10;;;;;;8224922;28;20026;-79
2023/03/07 14:42:00;;;;;;;10.45;5.03;;;11.50;90.20;;;;;;8227892;28;20034;-78
2023/03/07 14:46:10;;;;;;;9.63;4.80;;;11.20;88.00;;;;;;8216921;28;20510;-78
2023/03/07 14:50:18;;;;;;;6.97;3.78;;;10.70;90.30;;;;;;8221556;28;20106;-82
2023/03/07 14:54:24;;;;;;;9.70;5.38;;;10.30;90.90;;;;;;8221816;28;20541;-82
2023/03/07 14:58:28;;;;;;;11.60;5.00;;;9.80;92.50;;;;;;8222731;28;20391;-82
2023/03/07 15:02:28;;;;;;;7.22;3.50;;;9.70;91.80;;;;;;8221577;28;20031;-78
2023/03/07 15:06:30;;;;;;;7.43;2.90;;;9.10;93.00;;;;;;8196502;28;20507;-79
2023/03/07 15:10:42;;;;;;;12.38;4.82;;;8.70;95.20;;;;;;8209999;28;20035;-78
2023/03/07 15:14:46;;;;;;;11.10;4.55;;;8.70;95.70;;;;;;8183415;28;20041;-77
2023/03/07 15:18:54;;;;;;;8.18;3.45;;;9.30;93.90;;;;;;8209648;28;20035;-78
2023/03/07 15:23:05;;;;;;;9.10;4.30;;;9.30;93.10;;;;;;8201461;28;20038;-76
2023/03/07 15:27:09;;;;;;;4.05;1.75;;;8.40;93.30;;;;;;8210023;28;20050;-79
2023/03/07 15:31:10;;;;;;;11.68;3.45;;;8.10;95.00;;;;;;8184905;28;20023;-78
2023/03/07 15:35:15;;;;;;;9.25;4.38;;;7.40;95.70;;;;;;8189787;28;20031;-79
2023/03/07 15:39:30;;;;;;;8.60;4.03;;;7.50;95.30;;;;;;8204795;28;20114;-80
2023/03/07 15:43:34;;;;;;;8.48;4.30;;;7.60;95.60;;;;;;8214751;28;20027;-79
2023/03/07 15:47:34;;;;;;;12.45;4.15;;;7.40;95.20;;;;;;8193379;28;20043;-78
2023/03/07 15:51:37;;;;;;;10.48;4.78;;;7.30;96.50;;;;;;8212676;28;20015;-77
2023/03/07 15:55:38;;;;;;;7.65;3.92;;;7.10;96.00;;;;;;8219894;28;20178;-78
2023/03/07 16:00:06;;;;;;;11.50;4.07;;;7.10;97.10;;;;;;8228491;28;20105;-78
2023/03/07 16:04:37;;;;;;;11.85;4.32;;;7.00;95.70;;;;;;8201901;28;20558;-78
2023/03/07 16:08:37;;;;;;;;;;;6.70;96.80;;;;;;8229584;28;20023;-78
2023/03/07 16:12:45;;;;;;;10.25;3.70;;;6.50;97.70;;;;;;8231069;28;19913;-77
2023/03/07 16:16:46;;;;;;;7.80;4.50;;;6.40;97.00;;;;;;8202395;28;20500;-79
2023/03/07 16:20:47;;;;;;;8.15;3.95;;;6.00;98.70;;;;;;8203104;28;20027;-78
2023/03/07 16:24:47;;;;;;;8.10;4.20;;;5.80;98.30;;;;;;8203556;28;20560;-77
2023/03/07 16:28:49;;;;;;;9.80;4.10;;;5.50;98.70;;;;;;8203284;28;20027;-78
2023/03/07 16:32:50;;;;;;;8.65;4.38;;;5.30;99.30;;;;;;8204816;28;20027;-79
2023/03/07 16:36:50;;;;;;;8.25;4.40;;;5.10;99.60;;;;;;8189126;28;20459;-79
2023/03/07 16:40:52;;;;;;;11.43;4.22;;;4.90;99.90;;;;;;8202233;28;20055;-78
2023/03/07 16:44:53;;;;;;;11.00;3.75;;;4.50;99.90;;;;;;8206724;28;20023;-79
2023/03/07 16:48:53;;;;;;;8.93;4.35;;;4.20;99.90;;;;;;8201975;28;20114;-78
2023/03/07 16:52:54;;;;;;;11.75;6.15;;;4.00;99.90;;;;;;8203902;28;20073;-78
2023/03/07 16:56:57;;;;;;;10.07;4.60;;;3.90;99.90;;;;;;8206393;28;20112;-79
2023/03/07 17:00:58;;;;;;;10.20;4.45;;;3.60;99.90;;;;;;8201623;28;20023;-79
2023/03/07 17:04:58;;;;;;;12.20;5.00;;;3.40;99.90;;;;;;8204299;28;20122;-79
2023/03/07 17:08:59;;;;;;;10.25;4.80;;;3.10;99.90;;;;;;8225832;28;20034;-78
2023/03/07 17:13:00;;;;;;;8.32;3.92;;;2.90;99.90;;;;;;8228854;28;20039;-80
2023/03/07 17:17:02;;;;;;;8.68;4.35;;;2.60;99.90;;;;;;8228482;28;20038;-79
2023/03/07 17:21:03;;;;;;;9.10;4.07;;;2.30;99.90;;;;;;8212720;28;20621;-78
2023/03/07 17:25:04;;;;;;;11.68;3.90;;;2.60;99.90;;;;;;8227841;28;20030;-77
2023/03/07 17:29:10;;;;;;;9.20;3.67;;;2.60;99.90;;;;;;8228618;28;20039;-79
2023/03/07 17:33:11;;;;;;;9.32;3.90;;;2.70;99.90;;;;;;8228011;28;20026;-78
2023/03/07 17:37:12;;;;;;;23.77;11.45;;;2.70;99.90;;;;;;8219163;28;20042;-75
2023/03/07 17:41:12;;;;;;;13.98;6.97;;;2.40;99.90;;;;;;8189760;28;20082;-77
2023/03/07 17:45:13;;;;;;;11.77;5.28;;;2.10;99.90;;;;;;8191194;28;20031;-77
2023/03/07 17:49:13;;;;;;;9.05;4.35;;;1.80;99.90;;;;;;8202080;28;20118;-78
2023/03/07 17:53:14;;;;;;;8.38;3.92;;;1.50;99.90;;;;;;8203444;28;20058;-77
2023/03/07 17:57:15;;;;;;;12.88;4.05;;;1.20;99.90;;;;;;8218587;28;20487;-77
2023/03/07 18:01:16;;;;;;;8.75;3.88;;;0.90;99.90;;;;;;8201081;28;20030;-79
2023/03/07 18:05:20;;;;;;;7.75;3.75;;;0.60;99.90;;;;;;8218452;28;20031;-77
2023/03/07 18:09:22;;;;;;;8.05;3.95;;;0.60;99.90;;;;;;8224163;28;20086;-77
2023/03/07 18:13:23;;;;;;;15.60;3.95;;;0.50;99.90;;;;;;8221838;28;20454;-77
2023/03/07 18:17:23;;;;;;;14.13;4.10;;;0.30;99.90;;;;;;8213114;28;20038;-77
2023/03/07 18:21:24;;;;;;;10.85;4.82;;;0.30;99.90;;;;;;8215179;28;20126;-78
2023/03/07 18:25:25;;;;;;;9.73;4.00;;;0.20;99.90;;;;;;8225630;28;20019;-78
2023/03/07 18:29:27;;;;;;;13.80;4.72;;;0.20;99.90;;;;;;8222828;28;20034;-77
2023/03/07 18:33:29;;;;;;;11.90;4.03;;;0.40;99.90;;;;;;8201168;28;20019;-77
2023/03/07 18:37:29;;;;;;;10.43;4.30;;;0.70;99.90;;;;;;8224597;28;20034;-78
2023/03/07 18:41:30;;;;;;;9.13;4.18;;;1.20;99.90;;;;;;8218320;28;20277;-76
2023/03/07 18:45:31;;;;;;;12.32;4.60;;;1.60;99.90;;;;;;8210939;28;20023;-77
2023/03/07 18:49:31;;;;;;;16.23;6.00;;;1.70;99.90;;;;;;8209680;28;20796;-77
2023/03/07 18:53:32;;;;;;;11.38;4.80;;;2.00;99.90;;;;;;8217608;28;20439;-77
2023/03/07 18:57:33;;;;;;;13.77;5.25;;;2.00;99.90;;;;;;8218144;28;20464;-78
2023/03/07 19:01:35;;;;;;;8.55;4.38;;;2.20;99.90;;;;;;8215545;28;20578;-79
2023/03/07 19:05:46;;;;;;;8.90;4.10;;;2.20;99.90;;;;;;8223359;28;20099;-78
2023/03/07 19:09:52;;;;;;;11.23;4.20;;;2.30;99.90;;;;;;8224502;28;20102;-77
2023/03/07 19:13:52;;;;;;;7.07;3.53;;;2.60;99.90;;;;;;8224390;28;20038;-78
2023/03/07 19:17:53;;;;;;;11.10;4.65;;;2.80;99.90;;;;;;8219193;28;20155;-78
2023/03/07 19:21:53;;;;;;;10.27;4.80;;;3.40;99.90;;;;;;8208621;28;20039;-78
2023/03/07 19:25:54;;;;;;;12.27;5.15;;;3.30;99.90;;;;;;8217489;28;20035;-78
2023/03/07 19:29:54;;;;;;;9.77;4.85;;;3.30;99.90;;;;;;8189438;28;20035;-78
2023/03/07 19:33:55;;;;;;;11.90;5.13;;;3.50;99.90;;;;;;8223665;28;20031;-77
2023/03/07 19:37:56;;;;;;;10.75;4.65;;;3.70;99.90;;;;;;8227973;28;20034;-77
2023/03/07 19:41:56;;;;;;;11.95;4.85;;;3.80;99.90;;;;;;8224375;28;20033;-77
2023/03/07 19:45:57;;;;;;;11.07;4.63;;;3.90;99.90;;;;;;8208723;28;20109;-77
2023/03/07 19:49:57;;;;;;;12.48;5.65;;;3.90;99.90;;;;;;8218548;28;20018;-79
2023/03/07 19:53:58;;;;;;;12.05;5.70;;;3.70;99.90;;;;;;8227670;28;20062;-78
2023/03/07 19:57:58;;;;;;;10.93;4.65;;;3.50;99.90;;;;;;8212127;28;20119;-77
2023/03/07 20:01:59;;;;;;;8.60;4.05;;;4.00;99.90;;;;;;8200640;28;20086;-78
2023/03/07 20:06:01;;;;;;;9.15;4.43;;;4.00;99.90;;;;;;8217486;28;20038;-78
2023/03/07 20:10:02;;;;;;;8.80;4.25;;;4.00;99.90;;;;;;8226112;28;20106;-78
2023/03/07 20:14:04;;;;;;;9.20;4.65;;;4.10;99.90;;;;;;8208332;28;20035;-79
2023/03/07 20:18:05;;;;;;;11.90;5.15;;;4.00;99.90;;;;;;8218845;28;20041;-77
2023/03/07 20:22:05;;;;;;;8.23;4.18;;;4.00;99.90;;;;;;8223858;28;20030;-78
2023/03/07 20:26:09;;;;;;;17.75;5.65;;;4.00;99.90;;;;;;8220123;28;20035;-78
2023/03/07 20:30:10;;;;;;;10.73;4.28;;;4.10;99.90;;;;;;8222259;28;20110;-78
2023/03/07 20:34:11;;;;;;;10.50;3.70;;;4.20;99.90;;;;;;8197453;28;20031;-78
2023/03/07 20:38:11;;;;;;;9.70;4.20;;;4.00;99.90;;;;;;8207445;28;20026;-77
2023/03/07 20:42:12;;;;;;;10.95;4.20;;;4.10;99.90;;;;;;8204342;28;20444;-78
2023/03/07 20:46:14;;;;;;;9.35;4.82;;;4.10;99.90;;;;;;8209951;28;20055;-78
2023/03/07 20:50:15;;;;;;;8.52;4.28;;;4.20;99.90;;;;;;8205138;28;20138;-77
2023/03/07 20:54:17;;;;;;;13.50;4.80;;;4.20;99.90;;;;;;8188475;28;20031;-78
2023/03/07 20:58:17;;;;;;;12.43;4.47;;;4.00;99.90;;;;;;8220537;28;20054;-78
2023/03/07 21:02:18;;;;;;;11.10;4.10;;;4.00;99.90;;;;;;8207251;28;20031;-77
2023/03/07 21:06:19;;;;;;;11.05;4.32;;;4.00;99.90;;;;;;8223827;28;20015;-78
2023/03/07 21:10:20;;;;;;;7.78;3.83;;;4.10;99.90;;;;;;8214054;28;20081;-80
2023/03/07 21:14:21;;;;;;;10.07;4.15;;;4.00;99.90;;;;;;8230810;28;20023;-78
2023/03/07 21:18:22;;;;;;;11.02;4.50;;;3.90;99.90;;;;;;8226743;28;20023;-78
2023/03/07 21:22:22;;;;;;;8.52;3.83;;;4.00;99.90;;;;;;8230616;28;20046;-77
2023/03/07 21:26:26;;;;;;;9.88;3.10;;;4.10;99.90;;;;;;8225700;28;20038;-76